sensor_id;sensor_type;location;lat;lon;timestamp;pressure;altitude;pressure_sealevel;temperature;humidity
75692;BME280;64307;52.508;6.090;2022-11-18T00:01:10;99612.16;;;8.18;91.18
75692;BME280;64307;52.508;6.090;2022-11-18T00:03:37;99605.84;;;8.14;91.46
75692;BME280;64307;52.508;6.090;2022-11-18T00:06:03;99611.41;;;8.14;91.56
75692;BME280;64307;52.508;6.090;2022-11-18T00:08:29;99614.13;;;8.17;90.97
75692;BME280;64307;52.508;6.090;2022-11-18T00:10:54;99622.91;;;8.09;91.82
75692;BME280;64307;52.508;6.090;2022-11-18T00:13:20;99623.75;;;8.06;91.90
75692;BME280;64307;52.508;6.090;2022-11-18T00:16:06;99627.75;;;8.01;91.82
75692;BME280;64307;52.508;6.090;2022-11-18T00:18:32;99625.03;;;7.94;92.74
75692;BME280;64307;52.508;6.090;2022-11-18T00:21:05;99632.13;;;7.99;92.22
75692;BME280;64307;52.508;6.090;2022-11-18T00:23:30;99634.50;;;8.00;92.25
75692;BME280;64307;52.508;6.090;2022-11-18T00:26:16;99636.09;;;7.98;92.55
75692;BME280;64307;52.508;6.090;2022-11-18T00:28:41;99629.81;;;7.90;92.55
75692;BME280;64307;52.508;6.090;2022-11-18T00:31:10;99636.91;;;7.95;92.91
75692;BME280;64307;52.508;6.090;2022-11-18T00:33:36;99650.34;;;8.00;92.21
75692;BME280;64307;52.508;6.090;2022-11-18T00:36:03;99647.97;;;7.98;92.60
75692;BME280;64307;52.508;6.090;2022-11-18T00:38:29;99657.91;;;7.96;92.66
75692;BME280;64307;52.508;6.090;2022-11-18T00:41:02;99651.22;;;7.90;92.29
75692;BME280;64307;52.508;6.090;2022-11-18T00:43:28;99655.13;;;7.96;92.68
75692;BME280;64307;52.508;6.090;2022-11-18T00:45:54;99643.72;;;7.87;92.85
75692;BME280;64307;52.508;6.090;2022-11-18T00:48:20;99655.94;;;7.93;92.83
75692;BME280;64307;52.508;6.090;2022-11-18T00:50:57;99658.34;;;7.91;92.51
75692;BME280;64307;52.508;6.090;2022-11-18T00:53:24;99660.72;;;7.89;92.12
75692;BME280;64307;52.508;6.090;2022-11-18T00:55:49;99656.44;;;7.81;92.51
75692;BME280;64307;52.508;6.090;2022-11-18T00:58:15;99659.22;;;7.77;93.28
75692;BME280;64307;52.508;6.090;2022-11-18T01:00:45;99664.81;;;7.74;93.55
75692;BME280;64307;52.508;6.090;2022-11-18T01:03:13;99666.41;;;7.68;93.11
75692;BME280;64307;52.508;6.090;2022-11-18T01:05:39;99661.28;;;7.66;93.86
75692;BME280;64307;52.508;6.090;2022-11-18T01:08:05;99671.97;;;7.64;94.14
75692;BME280;64307;52.508;6.090;2022-11-18T01:10:31;99672.41;;;7.63;93.90
75692;BME280;64307;52.508;6.090;2022-11-18T01:12:56;99675.56;;;7.65;93.11
75692;BME280;64307;52.508;6.090;2022-11-18T01:15:42;99681.50;;;7.60;93.86
75692;BME280;64307;52.508;6.090;2022-11-18T01:18:08;99679.13;;;7.62;93.61
75692;BME280;64307;52.508;6.090;2022-11-18T01:20:33;99681.09;;;7.65;93.01
75692;BME280;64307;52.508;6.090;2022-11-18T01:22:59;99680.75;;;7.59;93.26
75692;BME280;64307;52.508;6.090;2022-11-18T01:25:24;99687.13;;;7.49;94.03
75692;BME280;64307;52.508;6.090;2022-11-18T01:27:49;99695.81;;;7.47;93.99
75692;BME280;64307;52.508;6.090;2022-11-18T01:30:15;99691.81;;;7.56;93.61
75692;BME280;64307;52.508;6.090;2022-11-18T01:32:41;99700.19;;;7.49;93.86
75692;BME280;64307;52.508;6.090;2022-11-18T01:35:07;99706.47;;;7.56;93.14
75692;BME280;64307;52.508;6.090;2022-11-18T01:37:33;99699.38;;;7.52;93.53
75692;BME280;64307;52.508;6.090;2022-11-18T01:39:58;99695.06;;;7.47;93.83
75692;BME280;64307;52.508;6.090;2022-11-18T01:42:23;99700.97;;;7.53;93.43
75692;BME280;64307;52.508;6.090;2022-11-18T01:44:56;99697.41;;;7.49;93.50
75692;BME280;64307;52.508;6.090;2022-11-18T01:47:24;99706.50;;;7.53;93.96
75692;BME280;64307;52.508;6.090;2022-11-18T01:49:50;99702.09;;;7.59;93.95
75692;BME280;64307;52.508;6.090;2022-11-18T01:52:15;99703.69;;;7.56;94.20
75692;BME280;64307;52.508;6.090;2022-11-18T01:54:43;99713.59;;;7.57;94.12
75692;BME280;64307;52.508;6.090;2022-11-18T01:57:14;99702.53;;;7.54;93.90
75692;BME280;64307;52.508;6.090;2022-11-18T01:59:43;99711.25;;;7.45;94.32
75692;BME280;64307;52.508;6.090;2022-11-18T02:02:12;99714.03;;;7.49;94.76
75692;BME280;64307;52.508;6.090;2022-11-18T02:04:40;99720.38;;;7.49;94.34
75692;BME280;64307;52.508;6.090;2022-11-18T02:07:07;99724.34;;;7.44;94.16
75692;BME280;64307;52.508;6.090;2022-11-18T02:09:34;99722.00;;;7.36;95.11
75692;BME280;64307;52.508;6.090;2022-11-18T02:12:00;99716.50;;;7.32;94.98
75692;BME280;64307;52.508;6.090;2022-11-18T02:14:28;99735.06;;;7.35;95.53
75692;BME280;64307;52.508;6.090;2022-11-18T02:17:17;99729.53;;;7.35;94.92
75692;BME280;64307;52.508;6.090;2022-11-18T02:22:42;99735.44;;;7.37;96.08
75692;BME280;64307;52.508;6.090;2022-11-18T02:25:18;99750.44;;;7.43;95.54
75692;BME280;64307;52.508;6.090;2022-11-18T02:30:35;99746.88;;;7.43;95.33
75692;BME280;64307;52.508;6.090;2022-11-18T02:33:10;99746.06;;;7.50;94.66
75692;BME280;64307;52.508;6.090;2022-11-18T02:35:46;99746.47;;;7.52;95.19
75692;BME280;64307;52.508;6.090;2022-11-18T02:38:22;99752.03;;;7.48;95.41
75692;BME280;64307;52.508;6.090;2022-11-18T02:40:52;99753.63;;;7.49;94.90
75692;BME280;64307;52.508;6.090;2022-11-18T02:43:23;99753.19;;;7.54;94.85
75692;BME280;64307;52.508;6.090;2022-11-18T02:45:53;99750.81;;;7.53;95.03
75692;BME280;64307;52.508;6.090;2022-11-18T02:48:23;99750.00;;;7.56;94.77
75692;BME280;64307;52.508;6.090;2022-11-18T02:50:50;99750.03;;;7.52;95.76
75692;BME280;64307;52.508;6.090;2022-11-18T02:53:19;99753.59;;;7.53;95.15
75692;BME280;64307;52.508;6.090;2022-11-18T02:55:45;99757.13;;;7.57;94.92
75692;BME280;64307;52.508;6.090;2022-11-18T02:58:14;99761.06;;;7.63;95.14
75692;BME280;64307;52.508;6.090;2022-11-18T03:00:41;99764.16;;;7.75;94.52
75692;BME280;64307;52.508;6.090;2022-11-18T03:03:26;99767.72;;;7.76;94.18
75692;BME280;64307;52.508;6.090;2022-11-18T03:06:09;99769.31;;;7.73;93.77
75692;BME280;64307;52.508;6.090;2022-11-18T03:08:48;99772.44;;;7.79;94.57
75692;BME280;64307;52.508;6.090;2022-11-18T03:11:22;99776.00;;;7.83;93.78
75692;BME280;64307;52.508;6.090;2022-11-18T03:14:10;99772.81;;;7.84;93.80
75692;BME280;64307;52.508;6.090;2022-11-18T03:17:08;99777.97;;;7.86;93.99
75692;BME280;64307;52.508;6.090;2022-11-18T03:20:09;99780.69;;;7.93;93.52
75692;BME280;64307;52.508;6.090;2022-11-18T03:22:51;99789.00;;;7.93;93.37
75692;BME280;64307;52.508;6.090;2022-11-18T03:25:24;99789.00;;;7.93;94.10
75692;BME280;64307;52.508;6.090;2022-11-18T03:30:46;99797.66;;;7.98;93.84
75692;BME280;64307;52.508;6.090;2022-11-18T03:33:18;99804.78;;;8.03;93.48
75692;BME280;64307;52.508;6.090;2022-11-18T03:35:48;99808.00;;;7.98;93.93
75692;BME280;64307;52.508;6.090;2022-11-18T03:38:19;99809.56;;;8.02;93.96
75692;BME280;64307;52.508;6.090;2022-11-18T03:40:51;99806.00;;;7.95;93.79
75692;BME280;64307;52.508;6.090;2022-11-18T03:43:22;99816.31;;;7.98;93.95
75692;BME280;64307;52.508;6.090;2022-11-18T03:45:51;99822.25;;;8.00;94.06
75692;BME280;64307;52.508;6.090;2022-11-18T03:48:24;99824.59;;;8.01;94.33
75692;BME280;64307;52.508;6.090;2022-11-18T03:50:54;99823.38;;;8.06;93.92
75692;BME280;64307;52.508;6.090;2022-11-18T03:53:24;99828.16;;;7.98;94.47
75692;BME280;64307;52.508;6.090;2022-11-18T03:55:54;99819.94;;;7.88;94.48
75692;BME280;64307;52.508;6.090;2022-11-18T03:58:30;99831.78;;;7.92;94.14
75692;BME280;64307;52.508;6.090;2022-11-18T04:01:03;99835.72;;;7.98;94.18
75692;BME280;64307;52.508;6.090;2022-11-18T04:03:32;99834.50;;;7.99;94.19
75692;BME280;64307;52.508;6.090;2022-11-18T04:06:03;99839.63;;;8.04;94.00
75692;BME280;64307;52.508;6.090;2022-11-18T04:08:36;99836.44;;;8.09;93.76
75692;BME280;64307;52.508;6.090;2022-11-18T04:11:16;99847.09;;;8.17;93.66
75692;BME280;64307;52.508;6.090;2022-11-18T04:14:05;99845.09;;;8.18;93.90
75692;BME280;64307;52.508;6.090;2022-11-18T04:16:41;99846.66;;;8.19;94.06
75692;BME280;64307;52.508;6.090;2022-11-18T04:19:06;99851.81;;;8.24;93.71
75692;BME280;64307;52.508;6.090;2022-11-18T04:21:32;99856.13;;;8.32;93.44
75692;BME280;64307;52.508;6.090;2022-11-18T04:23:57;99860.13;;;8.27;93.12
75692;BME280;64307;52.508;6.090;2022-11-18T04:26:22;99864.03;;;8.37;93.43
75692;BME280;64307;52.508;6.090;2022-11-18T04:28:47;99860.84;;;8.39;93.51
75692;BME280;64307;52.508;6.090;2022-11-18T04:31:13;99873.47;;;8.50;93.15
75692;BME280;64307;52.508;6.090;2022-11-18T04:33:38;99869.13;;;8.49;92.88
75692;BME280;64307;52.508;6.090;2022-11-18T04:36:03;99868.72;;;8.44;93.53
75692;BME280;64307;52.508;6.090;2022-11-18T04:38:29;99876.69;;;8.42;93.75
75692;BME280;64307;52.508;6.090;2022-11-18T04:40:54;99876.69;;;8.45;93.66
75692;BME280;64307;52.508;6.090;2022-11-18T04:43:19;99880.94;;;8.57;93.06
75692;BME280;64307;52.508;6.090;2022-11-18T04:45:44;99879.78;;;8.54;92.68
75692;BME280;64307;52.508;6.090;2022-11-18T04:48:10;99879.78;;;8.54;93.20
75692;BME280;64307;52.508;6.090;2022-11-18T04:50:35;99883.78;;;8.46;93.57
75692;BME280;64307;52.508;6.090;2022-11-18T04:53:00;99893.72;;;8.40;94.57
75692;BME280;64307;52.508;6.090;2022-11-18T04:55:26;99887.00;;;8.41;93.43
75692;BME280;64307;52.508;6.090;2022-11-18T04:57:51;99891.78;;;8.37;94.11
75692;BME280;64307;52.508;6.090;2022-11-18T05:00:16;99906.03;;;8.36;94.55
75692;BME280;64307;52.508;6.090;2022-11-18T05:02:42;99894.97;;;8.32;94.73
75692;BME280;64307;52.508;6.090;2022-11-18T05:05:07;99909.63;;;8.33;94.63
75692;BME280;64307;52.508;6.090;2022-11-18T05:07:32;99903.66;;;8.41;94.60
75692;BME280;64307;52.508;6.090;2022-11-18T05:09:57;99908.41;;;8.41;94.45
75692;BME280;64307;52.508;6.090;2022-11-18T05:12:23;99903.66;;;8.38;94.47
75692;BME280;64307;52.508;6.090;2022-11-18T05:15:07;99911.19;;;8.41;94.30
75692;BME280;64307;52.508;6.090;2022-11-18T05:17:34;99917.91;;;8.43;93.89
75692;BME280;64307;52.508;6.090;2022-11-18T05:19:59;99908.81;;;8.36;93.97
75692;BME280;64307;52.508;6.090;2022-11-18T05:22:24;99915.13;;;8.40;94.06
75692;BME280;64307;52.508;6.090;2022-11-18T05:24:50;99927.78;;;8.51;93.58
75692;BME280;64307;52.508;6.090;2022-11-18T05:27:15;99923.84;;;8.45;94.05
75692;BME280;64307;52.508;6.090;2022-11-18T05:29:40;99932.50;;;8.58;93.60
75692;BME280;64307;52.508;6.090;2022-11-18T05:32:06;99939.19;;;8.60;93.54
75692;BME280;64307;52.508;6.090;2022-11-18T05:34:31;99939.19;;;8.64;93.49
75692;BME280;64307;52.508;6.090;2022-11-18T05:36:56;99942.44;;;8.52;94.30
75692;BME280;64307;52.508;6.090;2022-11-18T05:39:22;99946.38;;;8.54;94.62
75692;BME280;64307;52.508;6.090;2022-11-18T05:41:47;99927.78;;;8.44;94.08
75692;BME280;64307;52.508;6.090;2022-11-18T05:44:31;99953.94;;;8.54;94.44
75692;BME280;64307;52.508;6.090;2022-11-18T05:46:56;99947.13;;;8.58;94.05
75692;BME280;64307;52.508;6.090;2022-11-18T05:49:21;99957.03;;;8.63;94.24
75692;BME280;64307;52.508;6.090;2022-11-18T05:51:47;99953.13;;;8.50;94.57
75692;BME280;64307;52.508;6.090;2022-11-18T05:54:13;99947.25;;;8.41;94.93
75692;BME280;64307;52.508;6.090;2022-11-18T05:56:43;99950.78;;;8.45;95.07
75692;BME280;64307;52.508;6.090;2022-11-18T05:59:12;99967.41;;;8.48;94.70
75692;BME280;64307;52.508;6.090;2022-11-18T06:01:45;99961.13;;;8.41;95.62
75692;BME280;64307;52.508;6.090;2022-11-18T06:04:26;99967.03;;;8.46;94.92
75692;BME280;64307;52.508;6.090;2022-11-18T06:07:00;99967.00;;;8.50;95.32
75692;BME280;64307;52.508;6.090;2022-11-18T06:09:31;99963.88;;;8.44;95.25
75692;BME280;64307;52.508;6.090;2022-11-18T06:11:58;99961.53;;;8.39;95.32
75692;BME280;64307;52.508;6.090;2022-11-18T06:14:33;99955.16;;;8.42;95.08
75692;BME280;64307;52.508;6.090;2022-11-18T06:17:05;99978.84;;;8.61;94.48
75692;BME280;64307;52.508;6.090;2022-11-18T06:19:32;99978.50;;;8.52;94.84
75692;BME280;64307;52.508;6.090;2022-11-18T06:21:58;99972.16;;;8.48;95.47
75692;BME280;64307;52.508;6.090;2022-11-18T06:24:24;99983.59;;;8.60;94.81
75692;BME280;64307;52.508;6.090;2022-11-18T06:26:50;99975.75;;;8.52;95.08
75692;BME280;64307;52.508;6.090;2022-11-18T06:29:17;99990.31;;;8.66;94.53
75692;BME280;64307;52.508;6.090;2022-11-18T06:31:43;100001.03;;;8.64;94.63
75692;BME280;64307;52.508;6.090;2022-11-18T06:34:09;99994.31;;;8.58;95.04
75692;BME280;64307;52.508;6.090;2022-11-18T06:36:34;99993.53;;;8.58;94.68
75692;BME280;64307;52.508;6.090;2022-11-18T06:39:03;99997.88;;;8.59;95.20
75692;BME280;64307;52.508;6.090;2022-11-18T06:41:30;100006.25;;;8.48;95.09
75692;BME280;64307;52.508;6.090;2022-11-18T06:43:55;100006.66;;;8.47;95.48
75692;BME280;64307;52.508;6.090;2022-11-18T06:46:20;100005.88;;;8.46;95.99
75692;BME280;64307;52.508;6.090;2022-11-18T06:49:04;100015.34;;;8.52;95.28
75692;BME280;64307;52.508;6.090;2022-11-18T06:51:29;100022.91;;;8.48;95.71
75692;BME280;64307;52.508;6.090;2022-11-18T06:53:54;100032.41;;;8.51;95.30
75692;BME280;64307;52.508;6.090;2022-11-18T06:56:21;100036.00;;;8.44;95.61
75692;BME280;64307;52.508;6.090;2022-11-18T06:58:51;100047.88;;;8.52;95.46
75692;BME280;64307;52.508;6.090;2022-11-18T07:01:18;100044.69;;;8.53;95.57
75692;BME280;64307;52.508;6.090;2022-11-18T07:03:46;100055.41;;;8.55;95.49
75692;BME280;64307;52.508;6.090;2022-11-18T07:06:13;100059.75;;;8.52;95.66
75692;BME280;64307;52.508;6.090;2022-11-18T07:08:40;100072.47;;;8.46;96.08
75692;BME280;64307;52.508;6.090;2022-11-18T07:11:07;100074.81;;;8.48;95.81
75692;BME280;64307;52.508;6.090;2022-11-18T07:13:33;100074.84;;;8.44;95.84
75692;BME280;64307;52.508;6.090;2022-11-18T07:16:10;100076.44;;;8.49;95.50
75692;BME280;64307;52.508;6.090;2022-11-18T07:18:37;100084.34;;;8.47;96.04
75692;BME280;64307;52.508;6.090;2022-11-18T07:21:09;100083.97;;;8.52;95.74
75692;BME280;64307;52.508;6.090;2022-11-18T07:23:34;100085.91;;;8.55;96.04
75692;BME280;64307;52.508;6.090;2022-11-18T07:26:00;100089.84;;;8.61;95.86
75692;BME280;64307;52.508;6.090;2022-11-18T07:28:27;100092.22;;;8.62;95.67
75692;BME280;64307;52.508;6.090;2022-11-18T07:31:02;100092.25;;;8.59;95.40
75692;BME280;64307;52.508;6.090;2022-11-18T07:33:28;100093.03;;;8.63;95.54
75692;BME280;64307;52.508;6.090;2022-11-18T07:35:53;100098.97;;;8.61;95.37
75692;BME280;64307;52.508;6.090;2022-11-18T07:38:19;100100.19;;;8.53;95.96
75692;BME280;64307;52.508;6.090;2022-11-18T07:40:44;100100.16;;;8.60;95.70
75692;BME280;64307;52.508;6.090;2022-11-18T07:43:09;100098.56;;;8.70;95.30
75692;BME280;64307;52.508;6.090;2022-11-18T07:45:34;100106.47;;;8.75;94.85
75692;BME280;64307;52.508;6.090;2022-11-18T07:48:00;100106.88;;;8.70;94.87
75692;BME280;64307;52.508;6.090;2022-11-18T07:50:25;100117.19;;;8.62;94.87
75692;BME280;64307;52.508;6.090;2022-11-18T07:52:55;100114.84;;;8.61;95.69
75692;BME280;64307;52.508;6.090;2022-11-18T07:55:20;100107.66;;;8.70;95.70
75692;BME280;64307;52.508;6.090;2022-11-18T07:57:46;100115.59;;;8.75;95.02
75692;BME280;64307;52.508;6.090;2022-11-18T08:00:11;100120.75;;;8.66;95.15
75692;BME280;64307;52.508;6.090;2022-11-18T08:02:37;100117.19;;;8.76;94.85
75692;BME280;64307;52.508;6.090;2022-11-18T08:05:02;100114.00;;;8.71;95.27
75692;BME280;64307;52.508;6.090;2022-11-18T08:07:27;100135.81;;;8.76;95.15
75692;BME280;64307;52.508;6.090;2022-11-18T08:09:52;100139.72;;;8.85;95.47
75692;BME280;64307;52.508;6.090;2022-11-18T08:12:18;100141.69;;;8.92;94.58
75692;BME280;64307;52.508;6.090;2022-11-18T08:14:43;100152.06;;;8.77;95.12
75692;BME280;64307;52.508;6.090;2022-11-18T08:17:08;100161.16;;;8.88;95.07
75692;BME280;64307;52.508;6.090;2022-11-18T08:19:33;100165.16;;;8.77;95.27
75692;BME280;64307;52.508;6.090;2022-11-18T08:21:59;100166.34;;;8.72;95.89
75692;BME280;64307;52.508;6.090;2022-11-18T08:24:24;100162.38;;;8.66;96.02
75692;BME280;64307;52.508;6.090;2022-11-18T08:26:49;100174.25;;;8.81;95.90
75692;BME280;64307;52.508;6.090;2022-11-18T08:29:14;100177.41;;;8.83;96.37
75692;BME280;64307;52.508;6.090;2022-11-18T08:31:40;100169.84;;;8.97;95.17
75692;BME280;64307;52.508;6.090;2022-11-18T08:34:06;100181.75;;;8.94;95.57
75692;BME280;64307;52.508;6.090;2022-11-18T08:36:34;100186.09;;;8.95;94.72
75692;BME280;64307;52.508;6.090;2022-11-18T08:39:00;100190.06;;;9.01;94.97
75692;BME280;64307;52.508;6.090;2022-11-18T08:41:41;100201.56;;;9.07;95.07
75692;BME280;64307;52.508;6.090;2022-11-18T08:44:09;100200.38;;;8.97;95.00
75692;BME280;64307;52.508;6.090;2022-11-18T08:46:35;100193.66;;;8.91;95.29
75692;BME280;64307;52.508;6.090;2022-11-18T08:49:00;100196.03;;;8.96;95.62
75692;BME280;64307;52.508;6.090;2022-11-18T08:51:26;100205.16;;;9.00;94.76
75692;BME280;64307;52.508;6.090;2022-11-18T08:53:51;100205.16;;;8.93;94.93
75692;BME280;64307;52.508;6.090;2022-11-18T08:56:18;100209.16;;;8.85;95.66
75692;BME280;64307;52.508;6.090;2022-11-18T08:58:44;100213.09;;;8.98;95.42
75692;BME280;64307;52.508;6.090;2022-11-18T09:01:10;100217.44;;;9.03;94.49
75692;BME280;64307;52.508;6.090;2022-11-18T09:03:36;100220.22;;;8.96;95.29
75692;BME280;64307;52.508;6.090;2022-11-18T09:06:09;100211.47;;;9.08;94.78
75692;BME280;64307;52.508;6.090;2022-11-18T09:08:36;100216.63;;;8.99;95.20
75692;BME280;64307;52.508;6.090;2022-11-18T09:11:11;100222.16;;;9.09;94.73
75692;BME280;64307;52.508;6.090;2022-11-18T09:13:37;100229.31;;;9.11;94.74
75692;BME280;64307;52.508;6.090;2022-11-18T09:16:02;100222.56;;;9.12;94.54
75692;BME280;64307;52.508;6.090;2022-11-18T09:18:28;100228.13;;;9.15;94.18
75692;BME280;64307;52.508;6.090;2022-11-18T09:21:02;100226.53;;;9.11;94.50
75692;BME280;64307;52.508;6.090;2022-11-18T09:23:27;100225.72;;;9.17;94.81
75692;BME280;64307;52.508;6.090;2022-11-18T09:25:57;100226.81;;;9.41;93.58
75692;BME280;64307;52.508;6.090;2022-11-18T09:28:23;100231.94;;;9.46;93.61
75692;BME280;64307;52.508;6.090;2022-11-18T09:30:48;100219.59;;;9.50;92.42
75692;BME280;64307;52.508;6.090;2022-11-18T09:33:13;100222.69;;;9.70;92.74
75692;BME280;64307;52.508;6.090;2022-11-18T09:35:42;100225.47;;;9.70;92.01
75692;BME280;64307;52.508;6.090;2022-11-18T09:38:08;100232.31;;;9.51;93.01
75692;BME280;64307;52.508;6.090;2022-11-18T09:40:42;100237.31;;;9.77;92.07
75692;BME280;64307;52.508;6.090;2022-11-18T09:43:20;100238.94;;;9.78;91.97
75692;BME280;64307;52.508;6.090;2022-11-18T09:45:56;100241.72;;;9.71;92.49
75692;BME280;64307;52.508;6.090;2022-11-18T09:48:24;100245.38;;;9.58;93.16
75692;BME280;64307;52.508;6.090;2022-11-18T09:51:09;100242.91;;;9.74;92.58
75692;BME280;64307;52.508;6.090;2022-11-18T09:53:38;100252.78;;;9.82;91.38
75692;BME280;64307;52.508;6.090;2022-11-18T09:56:13;100247.25;;;9.82;91.29
75692;BME280;64307;52.508;6.090;2022-11-18T09:58:39;100262.34;;;9.81;91.99
75692;BME280;64307;52.508;6.090;2022-11-18T10:01:13;100254.84;;;9.74;92.10
75692;BME280;64307;52.508;6.090;2022-11-18T10:03:42;100266.31;;;9.80;91.92
75692;BME280;64307;52.508;6.090;2022-11-18T10:11:17;100270.75;;;9.70;92.56
75692;BME280;64307;52.508;6.090;2022-11-18T10:13:59;100274.53;;;10.01;92.21
75692;BME280;64307;52.508;6.090;2022-11-18T10:16:54;100268.53;;;10.06;91.84
75692;BME280;64307;52.508;6.090;2022-11-18T10:24:37;100291.59;;;10.14;90.98
75692;BME280;64307;52.508;6.090;2022-11-18T10:27:09;100300.44;;;9.91;92.16
75692;BME280;64307;52.508;6.090;2022-11-18T10:29:34;100290.00;;;10.13;90.81
75692;BME280;64307;52.508;6.090;2022-11-18T10:34:28;100288.91;;;10.54;88.93
75692;BME280;64307;52.508;6.090;2022-11-18T10:39:25;100289.28;;;10.56;88.38
75692;BME280;64307;52.508;6.090;2022-11-18T10:41:50;100295.41;;;11.22;85.42
75692;BME280;64307;52.508;6.090;2022-11-18T10:49:38;100301.69;;;11.30;85.31
75692;BME280;64307;52.508;6.090;2022-11-18T10:52:08;100295.25;;;11.36;85.05
75692;BME280;64307;52.508;6.090;2022-11-18T10:54:34;100300.34;;;11.41;83.94
75692;BME280;64307;52.508;6.090;2022-11-18T10:57:05;100299.13;;;11.46;82.81
75692;BME280;64307;52.508;6.090;2022-11-18T10:59:55;100292.53;;;16.97;62.92
75692;BME280;64307;52.508;6.090;2022-11-18T11:02:32;100291.78;;;14.14;nan
75692;BME280;64307;52.508;6.090;2022-11-18T11:05:02;100304.53;;;14.66;69.50
75692;BME280;64307;52.508;6.090;2022-11-18T11:07:30;100295.28;;;16.00;64.79
75692;BME280;64307;52.508;6.090;2022-11-18T11:10:00;100310.41;;;11.99;79.47
75692;BME280;64307;52.508;6.090;2022-11-18T11:12:28;100318.00;;;10.91;84.29
75692;BME280;64307;52.508;6.090;2022-11-18T11:14:57;100322.56;;;10.19;88.09
75692;BME280;64307;52.508;6.090;2022-11-18T11:17:35;100318.56;;;10.20;88.86
75692;BME280;64307;52.508;6.090;2022-11-18T11:22:37;100317.75;;;10.23;88.92
75692;BME280;64307;52.508;6.090;2022-11-18T11:25:04;100322.06;;;10.31;89.18
75692;BME280;64307;52.508;6.090;2022-11-18T11:27:58;100329.22;;;10.32;88.63
75692;BME280;64307;52.508;6.090;2022-11-18T11:30:26;100331.63;;;10.30;88.93
75692;BME280;64307;52.508;6.090;2022-11-18T11:33:02;100329.28;;;10.25;88.63
75692;BME280;64307;52.508;6.090;2022-11-18T11:35:33;100333.78;;;9.95;90.03
75692;BME280;64307;52.508;6.090;2022-11-18T11:38:20;100336.94;;;10.00;89.97
75692;BME280;64307;52.508;6.090;2022-11-18T11:40:53;100338.13;;;9.99;90.19
75692;BME280;64307;52.508;6.090;2022-11-18T11:46:51;100340.44;;;10.18;89.07
75692;BME280;64307;52.508;6.090;2022-11-18T11:49:18;100345.56;;;10.30;89.32
75692;BME280;64307;52.508;6.090;2022-11-18T11:51:55;100342.06;;;10.70;87.68
75692;BME280;64307;52.508;6.090;2022-11-18T12:00:56;100347.31;;;10.61;87.32
75692;BME280;64307;52.508;6.090;2022-11-18T12:04:03;100358.06;;;10.59;87.86
75692;BME280;64307;52.508;6.090;2022-11-18T12:06:20;100347.31;;;10.61;87.89
75692;BME280;64307;52.508;6.090;2022-11-18T12:11:40;100346.78;;;10.19;88.04
75692;BME280;64307;52.508;6.090;2022-11-18T12:14:23;100361.94;;;10.11;88.75
75692;BME280;64307;52.508;6.090;2022-11-18T12:17:03;100361.16;;;10.14;89.41
75692;BME280;64307;52.508;6.090;2022-11-18T12:19:37;100357.19;;;10.01;89.22
75692;BME280;64307;52.508;6.090;2022-11-18T12:22:03;100360.06;;;9.86;89.44
75692;BME280;64307;52.508;6.090;2022-11-18T12:24:40;100361.25;;;9.82;89.32
75692;BME280;64307;52.508;6.090;2022-11-18T12:30:03;100370.34;;;9.97;89.39
75692;BME280;64307;52.508;6.090;2022-11-18T12:32:49;100377.47;;;10.01;89.54
75692;BME280;64307;52.508;6.090;2022-11-18T12:35:25;100369.56;;;9.93;90.57
75692;BME280;64307;52.508;6.090;2022-11-18T12:40:33;100372.00;;;9.73;90.87
75692;BME280;64307;52.508;6.090;2022-11-18T12:42:59;100370.44;;;9.65;91.02
75692;BME280;64307;52.508;6.090;2022-11-18T12:48:32;100381.56;;;9.72;90.79
75692;BME280;64307;52.508;6.090;2022-11-18T12:53:43;100380.75;;;9.75;90.70
75692;BME280;64307;52.508;6.090;2022-11-18T12:56:27;100387.13;;;9.72;90.50
75692;BME280;64307;52.508;6.090;2022-11-18T12:58:59;100388.72;;;9.66;90.82
75692;BME280;64307;52.508;6.090;2022-11-18T13:01:26;100393.88;;;9.71;89.60
75692;BME280;64307;52.508;6.090;2022-11-18T13:04:08;100397.47;;;9.61;90.20
75692;BME280;64307;52.508;6.090;2022-11-18T13:06:35;100402.63;;;9.59;90.08
75692;BME280;64307;52.508;6.090;2022-11-18T13:09:13;100396.69;;;9.46;90.46
75692;BME280;64307;52.508;6.090;2022-11-18T13:11:58;100406.25;;;9.35;90.97
75692;BME280;64307;52.508;6.090;2022-11-18T13:14:31;100410.25;;;9.34;91.04
75692;BME280;64307;52.508;6.090;2022-11-18T13:22:54;100425.34;;;9.19;90.58
75692;BME280;64307;52.508;6.090;2022-11-18T13:25:38;100420.97;;;9.03;90.66
75692;BME280;64307;52.508;6.090;2022-11-18T13:31:04;100426.94;;;8.98;91.12
75692;BME280;64307;52.508;6.090;2022-11-18T13:33:36;100431.69;;;9.05;90.72
75692;BME280;64307;52.508;6.090;2022-11-18T13:36:02;100438.03;;;9.13;90.81
75692;BME280;64307;52.508;6.090;2022-11-18T13:38:27;100431.69;;;9.01;90.05
75692;BME280;64307;52.508;6.090;2022-11-18T13:40:53;100447.97;;;8.92;91.43
75692;BME280;64307;52.508;6.090;2022-11-18T13:43:33;100443.19;;;8.86;91.34
75692;BME280;64307;52.508;6.090;2022-11-18T13:45:59;100437.19;;;8.66;91.56
75692;BME280;64307;52.508;6.090;2022-11-18T13:48:26;100434.03;;;8.71;91.57
75692;BME280;64307;52.508;6.090;2022-11-18T13:50:54;100441.16;;;8.72;91.37
75692;BME280;64307;52.508;6.090;2022-11-18T13:53:29;100445.53;;;8.63;91.46
75692;BME280;64307;52.508;6.090;2022-11-18T13:56:02;100445.53;;;8.56;92.04
75692;BME280;64307;52.508;6.090;2022-11-18T14:01:14;100449.88;;;8.57;91.60
75692;BME280;64307;52.508;6.090;2022-11-18T14:03:53;100453.81;;;8.49;91.58
75692;BME280;64307;52.508;6.090;2022-11-18T14:06:39;100442.75;;;8.63;91.50
75692;BME280;64307;52.508;6.090;2022-11-18T14:09:29;100453.38;;;8.40;91.66
75692;BME280;64307;52.508;6.090;2022-11-18T14:12:04;100459.34;;;8.42;91.80
75692;BME280;64307;52.508;6.090;2022-11-18T14:14:39;100465.66;;;8.32;92.12
75692;BME280;64307;52.508;6.090;2022-11-18T14:19:46;100466.31;;;8.11;92.06
75692;BME280;64307;52.508;6.090;2022-11-18T14:22:26;100460.38;;;8.09;93.08
75692;BME280;64307;52.508;6.090;2022-11-18T14:29:53;100476.19;;;8.01;92.30
75692;BME280;64307;52.508;6.090;2022-11-18T14:32:18;100483.59;;;7.80;92.40
75692;BME280;64307;52.508;6.090;2022-11-18T14:34:43;100493.03;;;7.72;92.55